sensor_id;sensor_type;location;lat;lon;timestamp;P1;durP1;ratioP1;P2;durP2;ratioP2
77513;SDS011;66626;48.872;9.084;2023-03-03T00:02:01;44.58;;;16.95;;
77513;SDS011;66626;48.872;9.084;2023-03-03T00:04:26;36.75;;;16.15;;
77513;SDS011;66626;48.872;9.084;2023-03-03T00:06:52;39.10;;;16.40;;
77513;SDS011;66626;48.872;9.084;2023-03-03T00:09:17;35.55;;;16.17;;
77513;SDS011;66626;48.872;9.084;2023-03-03T00:11:53;44.10;;;16.23;;
77513;SDS011;66626;48.872;9.084;2023-03-03T00:14:28;30.98;;;14.60;;
77513;SDS011;66626;48.872;9.084;2023-03-03T00:16:56;37.85;;;16.98;;
77513;SDS011;66626;48.872;9.084;2023-03-03T00:19:22;38.78;;;14.65;;
77513;SDS011;66626;48.872;9.084;2023-03-03T00:21:48;36.53;;;15.35;;
77513;SDS011;66626;48.872;9.084;2023-03-03T00:24:19;30.92;;;14.10;;
77513;SDS011;66626;48.872;9.084;2023-03-03T00:26:48;39.05;;;16.85;;
77513;SDS011;66626;48.872;9.084;2023-03-03T00:29:28;38.13;;;15.55;;
77513;SDS011;66626;48.872;9.084;2023-03-03T00:34:41;36.97;;;16.70;;
77513;SDS011;66626;48.872;9.084;2023-03-03T00:37:25;35.17;;;15.60;;
77513;SDS011;66626;48.872;9.084;2023-03-03T00:40:02;34.75;;;13.82;;
77513;SDS011;66626;48.872;9.084;2023-03-03T00:42:38;36.75;;;15.18;;
77513;SDS011;66626;48.872;9.084;2023-03-03T00:45:15;31.40;;;13.52;;
77513;SDS011;66626;48.872;9.084;2023-03-03T00:47:46;34.58;;;16.67;;
77513;SDS011;66626;48.872;9.084;2023-03-03T00:50:17;35.53;;;14.77;;
77513;SDS011;66626;48.872;9.084;2023-03-03T00:52:52;37.38;;;14.75;;
77513;SDS011;66626;48.872;9.084;2023-03-03T00:55:25;34.63;;;15.02;;
77513;SDS011;66626;48.872;9.084;2023-03-03T00:57:51;35.20;;;14.70;;
77513;SDS011;66626;48.872;9.084;2023-03-03T01:00:16;39.58;;;16.58;;
77513;SDS011;66626;48.872;9.084;2023-03-03T01:02:42;39.58;;;15.73;;
77513;SDS011;66626;48.872;9.084;2023-03-03T01:05:12;35.83;;;15.75;;
77513;SDS011;66626;48.872;9.084;2023-03-03T01:07:38;37.30;;;16.13;;
77513;SDS011;66626;48.872;9.084;2023-03-03T01:10:03;41.35;;;15.73;;
77513;SDS011;66626;48.872;9.084;2023-03-03T01:12:29;43.60;;;15.75;;
77513;SDS011;66626;48.872;9.084;2023-03-03T01:14:54;38.75;;;15.75;;
77513;SDS011;66626;48.872;9.084;2023-03-03T01:17:20;36.78;;;16.77;;
77513;SDS011;66626;48.872;9.084;2023-03-03T01:19:45;40.72;;;16.63;;
77513;SDS011;66626;48.872;9.084;2023-03-03T01:22:10;38.20;;;18.42;;
77513;SDS011;66626;48.872;9.084;2023-03-03T01:24:36;37.22;;;14.50;;
77513;SDS011;66626;48.872;9.084;2023-03-03T01:27:01;43.67;;;16.55;;
77513;SDS011;66626;48.872;9.084;2023-03-03T01:29:26;37.35;;;15.57;;
77513;SDS011;66626;48.872;9.084;2023-03-03T01:31:52;35.40;;;16.02;;
77513;SDS011;66626;48.872;9.084;2023-03-03T01:34:17;39.65;;;16.73;;
77513;SDS011;66626;48.872;9.084;2023-03-03T01:36:43;38.80;;;16.08;;
77513;SDS011;66626;48.872;9.084;2023-03-03T01:39:09;39.63;;;17.02;;
77513;SDS011;66626;48.872;9.084;2023-03-03T01:41:34;39.13;;;17.65;;
77513;SDS011;66626;48.872;9.084;2023-03-03T01:44:00;39.72;;;16.63;;
77513;SDS011;66626;48.872;9.084;2023-03-03T01:46:28;29.23;;;14.55;;
77513;SDS011;66626;48.872;9.084;2023-03-03T01:49:06;35.15;;;14.73;;
77513;SDS011;66626;48.872;9.084;2023-03-03T01:51:56;38.25;;;16.10;;
77513;SDS011;66626;48.872;9.084;2023-03-03T01:54:24;44.75;;;18.13;;
77513;SDS011;66626;48.872;9.084;2023-03-03T01:56:57;34.10;;;16.02;;
77513;SDS011;66626;48.872;9.084;2023-03-03T01:59:29;37.97;;;16.50;;
77513;SDS011;66626;48.872;9.084;2023-03-03T02:01:56;43.17;;;16.70;;
77513;SDS011;66626;48.872;9.084;2023-03-03T02:04:21;43.28;;;17.15;;
77513;SDS011;66626;48.872;9.084;2023-03-03T02:06:49;40.63;;;18.27;;
77513;SDS011;66626;48.872;9.084;2023-03-03T02:12:00;37.45;;;15.85;;
77513;SDS011;66626;48.872;9.084;2023-03-03T02:14:29;46.88;;;17.25;;
77513;SDS011;66626;48.872;9.084;2023-03-03T02:16:54;30.63;;;15.27;;
77513;SDS011;66626;48.872;9.084;2023-03-03T02:19:40;32.70;;;14.82;;
77513;SDS011;66626;48.872;9.084;2023-03-03T02:22:18;33.05;;;15.43;;
77513;SDS011;66626;48.872;9.084;2023-03-03T02:24:48;35.65;;;16.25;;
77513;SDS011;66626;48.872;9.084;2023-03-03T02:27:18;38.72;;;15.98;;
77513;SDS011;66626;48.872;9.084;2023-03-03T02:29:43;33.70;;;14.90;;
77513;SDS011;66626;48.872;9.084;2023-03-03T02:32:09;32.33;;;14.18;;
77513;SDS011;66626;48.872;9.084;2023-03-03T02:34:45;29.15;;;12.90;;
77513;SDS011;66626;48.872;9.084;2023-03-03T02:37:13;25.73;;;13.55;;
77513;SDS011;66626;48.872;9.084;2023-03-03T02:39:39;36.17;;;14.95;;
77513;SDS011;66626;48.872;9.084;2023-03-03T02:42:15;27.95;;;12.55;;
77513;SDS011;66626;48.872;9.084;2023-03-03T02:44:44;38.28;;;16.40;;
77513;SDS011;66626;48.872;9.084;2023-03-03T02:47:09;61.20;;;27.55;;
77513;SDS011;66626;48.872;9.084;2023-03-03T02:49:35;40.55;;;18.42;;
77513;SDS011;66626;48.872;9.084;2023-03-03T02:52:01;40.45;;;16.02;;
77513;SDS011;66626;48.872;9.084;2023-03-03T02:54:28;42.50;;;16.38;;
77513;SDS011;66626;48.872;9.084;2023-03-03T02:56:54;39.33;;;16.05;;
77513;SDS011;66626;48.872;9.084;2023-03-03T02:59:20;34.80;;;15.82;;
77513;SDS011;66626;48.872;9.084;2023-03-03T03:01:45;39.22;;;19.80;;
77513;SDS011;66626;48.872;9.084;2023-03-03T03:04:14;40.80;;;16.95;;
77513;SDS011;66626;48.872;9.084;2023-03-03T03:06:41;36.70;;;16.25;;
77513;SDS011;66626;48.872;9.084;2023-03-03T03:09:07;35.67;;;15.98;;
77513;SDS011;66626;48.872;9.084;2023-03-03T03:11:33;47.80;;;17.88;;
77513;SDS011;66626;48.872;9.084;2023-03-03T03:13:59;39.25;;;17.23;;
77513;SDS011;66626;48.872;9.084;2023-03-03T03:16:25;43.13;;;18.73;;
77513;SDS011;66626;48.872;9.084;2023-03-03T03:18:50;43.15;;;17.98;;
77513;SDS011;66626;48.872;9.084;2023-03-03T03:21:15;42.28;;;17.83;;
77513;SDS011;66626;48.872;9.084;2023-03-03T03:23:41;40.50;;;17.95;;
77513;SDS011;66626;48.872;9.084;2023-03-03T03:26:06;40.15;;;16.25;;
77513;SDS011;66626;48.872;9.084;2023-03-03T03:28:32;41.00;;;17.23;;
77513;SDS011;66626;48.872;9.084;2023-03-03T03:30:57;39.47;;;16.30;;
77513;SDS011;66626;48.872;9.084;2023-03-03T03:33:23;41.22;;;16.27;;
77513;SDS011;66626;48.872;9.084;2023-03-03T03:35:49;41.58;;;17.80;;
77513;SDS011;66626;48.872;9.084;2023-03-03T03:38:14;39.15;;;16.63;;
77513;SDS011;66626;48.872;9.084;2023-03-03T03:40:40;42.92;;;17.58;;
77513;SDS011;66626;48.872;9.084;2023-03-03T03:43:05;40.72;;;17.67;;
77513;SDS011;66626;48.872;9.084;2023-03-03T03:45:31;40.40;;;15.63;;
77513;SDS011;66626;48.872;9.084;2023-03-03T03:47:56;37.13;;;14.82;;
77513;SDS011;66626;48.872;9.084;2023-03-03T03:50:21;42.83;;;17.67;;
77513;SDS011;66626;48.872;9.084;2023-03-03T03:52:47;50.13;;;18.27;;
77513;SDS011;66626;48.872;9.084;2023-03-03T03:55:13;44.45;;;17.27;;
77513;SDS011;66626;48.872;9.084;2023-03-03T03:57:39;42.25;;;17.95;;
77513;SDS011;66626;48.872;9.084;2023-03-03T04:00:05;39.35;;;16.73;;
77513;SDS011;66626;48.872;9.084;2023-03-03T04:02:31;43.92;;;16.88;;
77513;SDS011;66626;48.872;9.084;2023-03-03T04:04:56;42.95;;;16.15;;
77513;SDS011;66626;48.872;9.084;2023-03-03T04:07:21;42.22;;;17.10;;
77513;SDS011;66626;48.872;9.084;2023-03-03T04:09:47;36.20;;;15.98;;
77513;SDS011;66626;48.872;9.084;2023-03-03T04:12:12;41.25;;;16.38;;
77513;SDS011;66626;48.872;9.084;2023-03-03T04:14:37;35.22;;;16.77;;
77513;SDS011;66626;48.872;9.084;2023-03-03T04:17:03;34.97;;;16.58;;
77513;SDS011;66626;48.872;9.084;2023-03-03T04:19:28;37.40;;;17.65;;
77513;SDS011;66626;48.872;9.084;2023-03-03T04:21:53;39.65;;;15.52;;
77513;SDS011;66626;48.872;9.084;2023-03-03T04:24:18;42.35;;;16.55;;
77513;SDS011;66626;48.872;9.084;2023-03-03T04:26:44;41.75;;;17.92;;
77513;SDS011;66626;48.872;9.084;2023-03-03T04:29:09;33.03;;;14.50;;
77513;SDS011;66626;48.872;9.084;2023-03-03T04:31:35;35.75;;;15.88;;
77513;SDS011;66626;48.872;9.084;2023-03-03T04:34:00;45.17;;;19.13;;
77513;SDS011;66626;48.872;9.084;2023-03-03T04:36:25;39.88;;;17.85;;
77513;SDS011;66626;48.872;9.084;2023-03-03T04:38:50;47.97;;;17.70;;
77513;SDS011;66626;48.872;9.084;2023-03-03T04:41:16;40.08;;;17.38;;
77513;SDS011;66626;48.872;9.084;2023-03-03T04:43:41;45.70;;;17.98;;
77513;SDS011;66626;48.872;9.084;2023-03-03T04:46:07;38.80;;;16.98;;
77513;SDS011;66626;48.872;9.084;2023-03-03T04:48:32;41.58;;;18.20;;
77513;SDS011;66626;48.872;9.084;2023-03-03T04:50:57;44.05;;;18.70;;
77513;SDS011;66626;48.872;9.084;2023-03-03T04:53:23;44.40;;;18.58;;
77513;SDS011;66626;48.872;9.084;2023-03-03T04:55:49;51.00;;;19.45;;
77513;SDS011;66626;48.872;9.084;2023-03-03T04:58:17;48.22;;;19.10;;
77513;SDS011;66626;48.872;9.084;2023-03-03T05:00:44;45.90;;;20.02;;
77513;SDS011;66626;48.872;9.084;2023-03-03T05:03:11;42.08;;;17.95;;
77513;SDS011;66626;48.872;9.084;2023-03-03T05:05:40;48.97;;;18.85;;
77513;SDS011;66626;48.872;9.084;2023-03-03T05:08:14;42.08;;;17.15;;
77513;SDS011;66626;48.872;9.084;2023-03-03T05:10:40;45.75;;;18.02;;
77513;SDS011;66626;48.872;9.084;2023-03-03T05:13:05;39.80;;;17.70;;
77513;SDS011;66626;48.872;9.084;2023-03-03T05:15:31;39.47;;;17.33;;
77513;SDS011;66626;48.872;9.084;2023-03-03T05:17:57;40.28;;;17.50;;
77513;SDS011;66626;48.872;9.084;2023-03-03T05:20:22;42.10;;;18.20;;
77513;SDS011;66626;48.872;9.084;2023-03-03T05:22:48;37.75;;;16.90;;
77513;SDS011;66626;48.872;9.084;2023-03-03T05:25:13;39.40;;;15.32;;
77513;SDS011;66626;48.872;9.084;2023-03-03T05:27:39;46.55;;;18.13;;
77513;SDS011;66626;48.872;9.084;2023-03-03T05:30:04;40.22;;;16.20;;
77513;SDS011;66626;48.872;9.084;2023-03-03T05:32:31;42.85;;;17.45;;
77513;SDS011;66626;48.872;9.084;2023-03-03T05:34:56;47.83;;;17.42;;
77513;SDS011;66626;48.872;9.084;2023-03-03T05:37:21;51.40;;;18.52;;
77513;SDS011;66626;48.872;9.084;2023-03-03T05:39:48;45.45;;;17.17;;
77513;SDS011;66626;48.872;9.084;2023-03-03T05:42:13;41.22;;;17.60;;
77513;SDS011;66626;48.872;9.084;2023-03-03T05:44:39;43.17;;;17.67;;
77513;SDS011;66626;48.872;9.084;2023-03-03T05:47:04;43.00;;;18.30;;
77513;SDS011;66626;48.872;9.084;2023-03-03T05:49:29;42.63;;;17.58;;
77513;SDS011;66626;48.872;9.084;2023-03-03T05:51:55;39.65;;;16.75;;
77513;SDS011;66626;48.872;9.084;2023-03-03T05:54:20;43.40;;;17.38;;
77513;SDS011;66626;48.872;9.084;2023-03-03T05:56:45;41.92;;;19.73;;
77513;SDS011;66626;48.872;9.084;2023-03-03T05:59:10;37.67;;;17.85;;
77513;SDS011;66626;48.872;9.084;2023-03-03T06:01:36;41.88;;;18.05;;
77513;SDS011;66626;48.872;9.084;2023-03-03T06:04:01;40.88;;;17.60;;
77513;SDS011;66626;48.872;9.084;2023-03-03T06:06:27;49.28;;;20.52;;
77513;SDS011;66626;48.872;9.084;2023-03-03T06:08:52;49.55;;;20.38;;
77513;SDS011;66626;48.872;9.084;2023-03-03T06:11:17;93.85;;;37.22;;
77513;SDS011;66626;48.872;9.084;2023-03-03T06:13:43;37.90;;;18.35;;
77513;SDS011;66626;48.872;9.084;2023-03-03T06:16:08;42.00;;;17.38;;
77513;SDS011;66626;48.872;9.084;2023-03-03T06:18:34;47.88;;;18.73;;
77513;SDS011;66626;48.872;9.084;2023-03-03T06:20:59;42.78;;;18.25;;
77513;SDS011;66626;48.872;9.084;2023-03-03T06:23:25;42.17;;;17.55;;
77513;SDS011;66626;48.872;9.084;2023-03-03T06:25:50;39.92;;;17.88;;
77513;SDS011;66626;48.872;9.084;2023-03-03T06:28:17;46.15;;;17.98;;
77513;SDS011;66626;48.872;9.084;2023-03-03T06:30:42;49.22;;;17.48;;
77513;SDS011;66626;48.872;9.084;2023-03-03T06:33:07;44.70;;;17.20;;
77513;SDS011;66626;48.872;9.084;2023-03-03T06:35:33;40.20;;;17.33;;
77513;SDS011;66626;48.872;9.084;2023-03-03T06:37:59;45.28;;;18.45;;
77513;SDS011;66626;48.872;9.084;2023-03-03T06:40:24;40.25;;;17.40;;
77513;SDS011;66626;48.872;9.084;2023-03-03T06:42:49;40.28;;;17.98;;
77513;SDS011;66626;48.872;9.084;2023-03-03T06:45:14;40.75;;;18.73;;
77513;SDS011;66626;48.872;9.084;2023-03-03T06:47:40;50.00;;;19.38;;
77513;SDS011;66626;48.872;9.084;2023-03-03T06:50:06;45.75;;;19.80;;
77513;SDS011;66626;48.872;9.084;2023-03-03T06:52:32;37.47;;;17.70;;
77513;SDS011;66626;48.872;9.084;2023-03-03T06:54:58;43.80;;;17.35;;
77513;SDS011;66626;48.872;9.084;2023-03-03T06:57:26;39.13;;;15.30;;
77513;SDS011;66626;48.872;9.084;2023-03-03T06:59:54;34.25;;;15.38;;
77513;SDS011;66626;48.872;9.084;2023-03-03T07:02:21;30.23;;;14.65;;
77513;SDS011;66626;48.872;9.084;2023-03-03T07:04:47;35.42;;;16.27;;
77513;SDS011;66626;48.872;9.084;2023-03-03T07:07:17;40.75;;;16.55;;
77513;SDS011;66626;48.872;9.084;2023-03-03T07:09:45;34.70;;;15.40;;
77513;SDS011;66626;48.872;9.084;2023-03-03T07:12:13;33.40;;;13.93;;
77513;SDS011;66626;48.872;9.084;2023-03-03T07:14:47;33.80;;;14.60;;
77513;SDS011;66626;48.872;9.084;2023-03-03T07:17:19;27.10;;;13.45;;
77513;SDS011;66626;48.872;9.084;2023-03-03T07:19:46;29.80;;;12.93;;
77513;SDS011;66626;48.872;9.084;2023-03-03T07:24:45;27.65;;;12.50;;
77513;SDS011;66626;48.872;9.084;2023-03-03T07:29:44;30.63;;;13.13;;
77513;SDS011;66626;48.872;9.084;2023-03-03T07:32:18;31.40;;;14.73;;
77513;SDS011;66626;48.872;9.084;2023-03-03T07:34:49;24.95;;;11.95;;
77513;SDS011;66626;48.872;9.084;2023-03-03T07:37:25;34.05;;;15.02;;
77513;SDS011;66626;48.872;9.084;2023-03-03T07:39:57;35.53;;;16.23;;
77513;SDS011;66626;48.872;9.084;2023-03-03T07:42:40;28.92;;;12.35;;
77513;SDS011;66626;48.872;9.084;2023-03-03T07:47:50;27.83;;;13.13;;
77513;SDS011;66626;48.872;9.084;2023-03-03T07:50:17;25.48;;;11.40;;
77513;SDS011;66626;48.872;9.084;2023-03-03T07:52:53;28.52;;;12.05;;
77513;SDS011;66626;48.872;9.084;2023-03-03T07:58:00;25.95;;;11.48;;
77513;SDS011;66626;48.872;9.084;2023-03-03T08:03:40;24.50;;;11.38;;
77513;SDS011;66626;48.872;9.084;2023-03-03T08:06:54;29.25;;;11.98;;
77513;SDS011;66626;48.872;9.084;2023-03-03T08:11:46;28.55;;;11.60;;
77513;SDS011;66626;48.872;9.084;2023-03-03T08:14:15;26.55;;;11.82;;
77513;SDS011;66626;48.872;9.084;2023-03-03T08:16:45;23.98;;;10.85;;
77513;SDS011;66626;48.872;9.084;2023-03-03T08:19:10;22.33;;;11.50;;
77513;SDS011;66626;48.872;9.084;2023-03-03T08:21:36;20.20;;;9.75;;
77513;SDS011;66626;48.872;9.084;2023-03-03T08:24:01;25.10;;;11.25;;
77513;SDS011;66626;48.872;9.084;2023-03-03T08:26:27;29.88;;;10.95;;
77513;SDS011;66626;48.872;9.084;2023-03-03T08:28:52;26.63;;;11.85;;
77513;SDS011;66626;48.872;9.084;2023-03-03T08:31:19;22.70;;;11.43;;
77513;SDS011;66626;48.872;9.084;2023-03-03T08:33:44;25.60;;;10.18;;
77513;SDS011;66626;48.872;9.084;2023-03-03T08:36:10;29.92;;;10.60;;
77513;SDS011;66626;48.872;9.084;2023-03-03T08:38:36;25.05;;;10.35;;
77513;SDS011;66626;48.872;9.084;2023-03-03T08:41:01;22.38;;;11.25;;
77513;SDS011;66626;48.872;9.084;2023-03-03T08:43:27;23.77;;;11.35;;
77513;SDS011;66626;48.872;9.084;2023-03-03T08:45:53;21.73;;;10.07;;
77513;SDS011;66626;48.872;9.084;2023-03-03T08:48:19;20.42;;;9.23;;
77513;SDS011;66626;48.872;9.084;2023-03-03T08:50:44;26.75;;;11.15;;
77513;SDS011;66626;48.872;9.084;2023-03-03T08:53:10;22.75;;;9.60;;
77513;SDS011;66626;48.872;9.084;2023-03-03T08:55:37;22.35;;;10.40;;
77513;SDS011;66626;48.872;9.084;2023-03-03T08:58:02;24.05;;;11.32;;
77513;SDS011;66626;48.872;9.084;2023-03-03T09:00:28;23.23;;;11.32;;
77513;SDS011;66626;48.872;9.084;2023-03-03T09:02:53;27.98;;;12.43;;
77513;SDS011;66626;48.872;9.084;2023-03-03T09:05:19;25.85;;;12.68;;
77513;SDS011;66626;48.872;9.084;2023-03-03T09:07:45;21.70;;;11.20;;
77513;SDS011;66626;48.872;9.084;2023-03-03T09:10:12;23.00;;;12.52;;
77513;SDS011;66626;48.872;9.084;2023-03-03T09:12:40;31.85;;;14.30;;
77513;SDS011;66626;48.872;9.084;2023-03-03T09:15:12;23.73;;;10.57;;
77513;SDS011;66626;48.872;9.084;2023-03-03T09:17:38;27.00;;;12.88;;
77513;SDS011;66626;48.872;9.084;2023-03-03T09:20:21;25.17;;;13.77;;
77513;SDS011;66626;48.872;9.084;2023-03-03T09:22:58;29.80;;;12.30;;
77513;SDS011;66626;48.872;9.084;2023-03-03T09:25:41;22.13;;;11.55;;
77513;SDS011;66626;48.872;9.084;2023-03-03T09:28:16;30.85;;;14.15;;
77513;SDS011;66626;48.872;9.084;2023-03-03T09:30:48;28.75;;;12.48;;
77513;SDS011;66626;48.872;9.084;2023-03-03T09:33:25;24.95;;;12.80;;
77513;SDS011;66626;48.872;9.084;2023-03-03T09:35:51;27.17;;;12.23;;
77513;SDS011;66626;48.872;9.084;2023-03-03T09:38:29;23.23;;;12.10;;
77513;SDS011;66626;48.872;9.084;2023-03-03T09:51:33;24.30;;;11.77;;
77513;SDS011;66626;48.872;9.084;2023-03-03T09:54:42;24.85;;;11.88;;
77513;SDS011;66626;48.872;9.084;2023-03-03T09:57:20;22.08;;;12.32;;
77513;SDS011;66626;48.872;9.084;2023-03-03T10:05:08;25.15;;;12.85;;
77513;SDS011;66626;48.872;9.084;2023-03-03T10:07:41;26.00;;;12.85;;
77513;SDS011;66626;48.872;9.084;2023-03-03T10:10:18;22.98;;;12.05;;
77513;SDS011;66626;48.872;9.084;2023-03-03T10:12:54;30.65;;;13.65;;
77513;SDS011;66626;48.872;9.084;2023-03-03T10:15:34;27.80;;;13.60;;
77513;SDS011;66626;48.872;9.084;2023-03-03T10:20:57;27.02;;;13.93;;
77513;SDS011;66626;48.872;9.084;2023-03-03T10:26:23;26.50;;;12.90;;
77513;SDS011;66626;48.872;9.084;2023-03-03T10:39:39;22.95;;;11.50;;
77513;SDS011;66626;48.872;9.084;2023-03-03T10:50:50;33.92;;;16.02;;
77513;SDS011;66626;48.872;9.084;2023-03-03T10:53:31;27.13;;;14.45;;
77513;SDS011;66626;48.872;9.084;2023-03-03T11:04:48;26.38;;;13.02;;
77513;SDS011;66626;48.872;9.084;2023-03-03T11:07:38;22.85;;;13.00;;
77513;SDS011;66626;48.872;9.084;2023-03-03T11:12:54;20.83;;;11.68;;
77513;SDS011;66626;48.872;9.084;2023-03-03T11:15:54;26.90;;;12.60;;
77513;SDS011;66626;48.872;9.084;2023-03-03T11:18:43;26.70;;;11.20;;
77513;SDS011;66626;48.872;9.084;2023-03-03T11:21:27;26.73;;;12.77;;
77513;SDS011;66626;48.872;9.084;2023-03-03T11:26:49;24.05;;;12.55;;
77513;SDS011;66626;48.872;9.084;2023-03-03T11:32:17;23.75;;;12.15;;
77513;SDS011;66626;48.872;9.084;2023-03-03T11:40:42;26.63;;;12.32;;
77513;SDS011;66626;48.872;9.084;2023-03-03T11:43:16;27.23;;;13.25;;
77513;SDS011;66626;48.872;9.084;2023-03-03T11:50:49;26.25;;;13.25;;
77513;SDS011;66626;48.872;9.084;2023-03-03T11:53:40;27.83;;;16.77;;
77513;SDS011;66626;48.872;9.084;2023-03-03T11:56:18;23.42;;;12.35;;
77513;SDS011;66626;48.872;9.084;2023-03-03T12:01:35;25.85;;;12.43;;
77513;SDS011;66626;48.872;9.084;2023-03-03T12:04:14;23.45;;;12.25;;
77513;SDS011;66626;48.872;9.084;2023-03-03T12:06:54;29.80;;;13.05;;
77513;SDS011;66626;48.872;9.084;2023-03-03T12:09:30;26.88;;;12.30;;
77513;SDS011;66626;48.872;9.084;2023-03-03T12:12:05;22.83;;;12.30;;
77513;SDS011;66626;48.872;9.084;2023-03-03T12:14:37;27.58;;;12.52;;
77513;SDS011;66626;48.872;9.084;2023-03-03T12:19:36;28.20;;;12.30;;
77513;SDS011;66626;48.872;9.084;2023-03-03T12:25:32;29.13;;;14.40;;
77513;SDS011;66626;48.872;9.084;2023-03-03T12:41:19;31.52;;;14.70;;
77513;SDS011;66626;48.872;9.084;2023-03-03T12:43:54;24.23;;;12.98;;
77513;SDS011;66626;48.872;9.084;2023-03-03T12:49:08;26.77;;;12.10;;
77513;SDS011;66626;48.872;9.084;2023-03-03T12:57:34;25.42;;;13.68;;
77513;SDS011;66626;48.872;9.084;2023-03-03T13:02:46;25.15;;;13.30;;
77513;SDS011;66626;48.872;9.084;2023-03-03T13:05:23;23.50;;;12.93;;
77513;SDS011;66626;48.872;9.084;2023-03-03T13:07:56;27.70;;;13.93;;
77513;SDS011;66626;48.872;9.084;2023-03-03T13:10:47;25.83;;;13.10;;
77513;SDS011;66626;48.872;9.084;2023-03-03T13:13:23;28.77;;;14.40;;
77513;SDS011;66626;48.872;9.084;2023-03-03T13:15:58;29.95;;;14.15;;
77513;SDS011;66626;48.872;9.084;2023-03-03T13:18:39;28.55;;;14.82;;
77513;SDS011;66626;48.872;9.084;2023-03-03T13:29:55;25.40;;;14.88;;
77513;SDS011;66626;48.872;9.084;2023-03-03T13:32:27;25.40;;;14.68;;
77513;SDS011;66626;48.872;9.084;2023-03-03T13:35:00;25.83;;;13.85;;
77513;SDS011;66626;48.872;9.084;2023-03-03T13:37:38;26.10;;;13.35;;
77513;SDS011;66626;48.872;9.084;2023-03-03T13:45:24;28.92;;;14.95;;
77513;SDS011;66626;48.872;9.084;2023-03-03T14:02:00;24.13;;;13.75;;
77513;SDS011;66626;48.872;9.084;2023-03-03T14:05:00;26.90;;;14.05;;
77513;SDS011;66626;48.872;9.084;2023-03-03T14:07:33;29.52;;;14.48;;
77513;SDS011;66626;48.872;9.084;2023-03-03T14:12:50;27.52;;;14.93;;
77513;SDS011;66626;48.872;9.084;2023-03-03T14:15:22;24.10;;;13.80;;
77513;SDS011;66626;48.872;9.084;2023-03-03T14:20:40;28.42;;;15.55;;
77513;SDS011;66626;48.872;9.084;2023-03-03T14:23:12;26.77;;;14.65;;
77513;SDS011;66626;48.872;9.084;2023-03-03T14:28:22;26.15;;;14.43;;
77513;SDS011;66626;48.872;9.084;2023-03-03T14:30:48;29.45;;;14.00;;
77513;SDS011;66626;48.872;9.084;2023-03-03T14:33:15;28.25;;;15.38;;
77513;SDS011;66626;48.872;9.084;2023-03-03T14:38:15;29.08;;;14.25;;
77513;SDS011;66626;48.872;9.084;2023-03-03T14:40:43;27.45;;;13.90;;
77513;SDS011;66626;48.872;9.084;2023-03-03T14:43:21;24.80;;;14.07;;
77513;SDS011;66626;48.872;9.084;2023-03-03T14:45:51;28.23;;;14.82;;
77513;SDS011;66626;48.872;9.084;2023-03-03T14:48:24;26.83;;;15.82;;
77513;SDS011;66626;48.872;9.084;2023-03-03T14:50:57;36.88;;;16.88;;
77513;SDS011;66626;48.872;9.084;2023-03-03T14:53:36;28.70;;;15.30;;
77513;SDS011;66626;48.872;9.084;2023-03-03T14:58:51;26.98;;;14.48;;
77513;SDS011;66626;48.872;9.084;2023-03-03T15:04:00;27.75;;;14.93;;
77513;SDS011;66626;48.872;9.084;2023-03-03T15:06:46;25.80;;;13.80;;
77513;SDS011;66626;48.872;9.084;2023-03-03T15:11:47;27.75;;;15.32;;
77513;SDS011;66626;48.872;9.084;2023-03-03T15:14:15;27.30;;;16.65;;
77513;SDS011;66626;48.872;9.084;2023-03-03T15:16:42;27.48;;;14.85;;
77513;SDS011;66626;48.872;9.084;2023-03-03T15:19:23;28.40;;;14.90;;
77513;SDS011;66626;48.872;9.084;2023-03-03T15:21:58;27.70;;;14.27;;
77513;SDS011;66626;48.872;9.084;2023-03-03T15:24:33;31.85;;;16.20;;
77513;SDS011;66626;48.872;9.084;2023-03-03T15:27:48;27.55;;;14.70;;
77513;SDS011;66626;48.872;9.084;2023-03-03T15:38:37;27.77;;;14.88;;
77513;SDS011;66626;48.872;9.084;2023-03-03T15:44:31;32.75;;;15.43;;
77513;SDS011;66626;48.872;9.084;2023-03-03T15:47:15;25.38;;;13.18;;
77513;SDS011;66626;48.872;9.084;2023-03-03T15:49:54;35.15;;;18.30;;
77513;SDS011;66626;48.872;9.084;2023-03-03T15:55:48;27.52;;;15.48;;
77513;SDS011;66626;48.872;9.084;2023-03-03T16:01:16;25.63;;;12.93;;
77513;SDS011;66626;48.872;9.084;2023-03-03T16:03:59;26.38;;;13.95;;
77513;SDS011;66626;48.872;9.084;2023-03-03T16:06:33;32.50;;;14.02;;
77513;SDS011;66626;48.872;9.084;2023-03-03T16:14:55;28.52;;;13.77;;
77513;SDS011;66626;48.872;9.084;2023-03-03T16:28:12;27.38;;;13.45;;
77513;SDS011;66626;48.872;9.084;2023-03-03T16:30:49;29.75;;;13.63;;
77513;SDS011;66626;48.872;9.084;2023-03-03T16:33:21;27.80;;;13.95;;
77513;SDS011;66626;48.872;9.084;2023-03-03T16:38:43;31.77;;;13.77;;
77513;SDS011;66626;48.872;9.084;2023-03-03T16:41:12;29.48;;;13.15;;
77513;SDS011;66626;48.872;9.084;2023-03-03T16:46:33;32.20;;;15.15;;
77513;SDS011;66626;48.872;9.084;2023-03-03T16:52:11;34.92;;;16.05;;
77513;SDS011;66626;48.872;9.084;2023-03-03T16:54:39;32.08;;;15.18;;
77513;SDS011;66626;48.872;9.084;2023-03-03T16:57:21;32.83;;;15.43;;
77513;SDS011;66626;48.872;9.084;2023-03-03T17:00:08;32.58;;;15.93;;
77513;SDS011;66626;48.872;9.084;2023-03-03T17:08:34;28.38;;;12.43;;
77513;SDS011;66626;48.872;9.084;2023-03-03T17:16:53;29.45;;;13.48;;
77513;SDS011;66626;48.872;9.084;2023-03-03T17:24:49;33.72;;;14.43;;
77513;SDS011;66626;48.872;9.084;2023-03-03T17:43:37;58.47;;;25.00;;
77513;SDS011;66626;48.872;9.084;2023-03-03T17:46:41;40.13;;;18.48;;
77513;SDS011;66626;48.872;9.084;2023-03-03T17:49:28;30.55;;;15.65;;
77513;SDS011;66626;48.872;9.084;2023-03-03T17:57:48;28.63;;;13.70;;
77513;SDS011;66626;48.872;9.084;2023-03-03T18:08:45;40.05;;;18.08;;
77513;SDS011;66626;48.872;9.084;2023-03-03T18:23:19;33.22;;;15.45;;
77513;SDS011;66626;48.872;9.084;2023-03-03T18:25:52;34.42;;;15.35;;
77513;SDS011;66626;48.872;9.084;2023-03-03T18:28:21;33.95;;;16.05;;
77513;SDS011;66626;48.872;9.084;2023-03-03T18:36:50;37.67;;;18.42;;
77513;SDS011;66626;48.872;9.084;2023-03-03T18:39:01;29.33;;;14.57;;
77513;SDS011;66626;48.872;9.084;2023-03-03T18:41:29;32.55;;;15.57;;
77513;SDS011;66626;48.872;9.084;2023-03-03T18:43:59;34.00;;;15.93;;
77513;SDS011;66626;48.872;9.084;2023-03-03T18:54:00;34.42;;;15.75;;
77513;SDS011;66626;48.872;9.084;2023-03-03T18:56:48;58.42;;;24.15;;
77513;SDS011;66626;48.872;9.084;2023-03-03T19:01:54;35.80;;;15.15;;
77513;SDS011;66626;48.872;9.084;2023-03-03T19:04:34;37.22;;;17.40;;
77513;SDS011;66626;48.872;9.084;2023-03-03T19:07:41;37.50;;;17.75;;
77513;SDS011;66626;48.872;9.084;2023-03-03T19:12:52;34.80;;;15.75;;
77513;SDS011;66626;48.872;9.084;2023-03-03T19:17:55;36.38;;;16.05;;
77513;SDS011;66626;48.872;9.084;2023-03-03T19:20:22;35.47;;;17.50;;
77513;SDS011;66626;48.872;9.084;2023-03-03T19:23:45;34.30;;;16.15;;
77513;SDS011;66626;48.872;9.084;2023-03-03T19:25:40;40.28;;;17.67;;
77513;SDS011;66626;48.872;9.084;2023-03-03T19:28:17;34.45;;;16.08;;
77513;SDS011;66626;48.872;9.084;2023-03-03T19:30:59;31.00;;;16.38;;
77513;SDS011;66626;48.872;9.084;2023-03-03T19:42:02;30.48;;;16.35;;
77513;SDS011;66626;48.872;9.084;2023-03-03T19:47:15;40.78;;;18.70;;